createdAt,value
2018-08-21T00:00:45.905Z,35.61
2018-08-21T00:01:45.879Z,35.8
2018-08-21T00:02:45.604Z,35.72
2018-08-21T00:03:45.852Z,35.82
2018-08-21T00:04:45.577Z,35.99
2018-08-21T00:05:45.571Z,35.51
2018-08-21T00:06:45.560Z,34.94
2018-08-21T00:07:45.550Z,34.27
2018-08-21T00:08:45.795Z,34.17
2018-08-21T00:09:45.787Z,33.88
2018-08-21T00:10:45.512Z,34.36
2018-08-21T00:11:45.497Z,34.17
2018-08-21T00:12:45.766Z,34.17
2018-08-21T00:13:45.737Z,34.27
2018-08-21T00:14:45.464Z,33.78
2018-08-21T00:15:45.724Z,33.01
2018-08-21T00:16:45.711Z,32.92
2018-08-21T00:17:45.690Z,32.92
2018-08-21T00:18:45.684Z,32.34
2018-08-21T00:19:45.411Z,31.96
2018-08-21T00:20:45.656Z,31.29
2018-08-21T00:21:45.386Z,31.48
2018-08-21T00:22:45.372Z,31
2018-08-21T00:23:45.627Z,30.71
2018-08-21T00:24:45.611Z,30.9
2018-08-21T00:25:45.340Z,30.62
2018-08-21T00:26:45.598Z,29.56
2018-08-21T00:27:45.314Z,29.56
2018-08-21T00:28:45.571Z,29.94
2018-08-21T00:29:45.560Z,29.94
2018-08-21T00:30:45.545Z,29.85
2018-08-21T00:31:45.534Z,29.66
2018-08-21T00:32:45.526Z,29.37
2018-08-21T00:33:45.246Z,29.17
2018-08-21T00:34:45.243Z,29.37
2018-08-21T00:35:45.491Z,28.5
2018-08-21T00:36:45.212Z,28.6
2018-08-21T00:37:45.464Z,28.31
2018-08-21T00:38:45.197Z,27.92
2018-08-21T00:39:45.181Z,27.06
2018-08-21T00:40:45.434Z,26.86
2018-08-21T00:41:45.156Z,26.3
2018-08-21T00:42:45.405Z,25.81
2018-08-21T00:43:45.132Z,25.34
2018-08-21T00:44:45.117Z,24.94
2018-08-21T00:45:45.376Z,24.94
2018-08-21T00:46:45.360Z,24.46
2018-08-21T00:47:45.086Z,24.85
2018-08-21T00:48:45.071Z,24.94
2018-08-21T00:49:45.059Z,24.65
2018-08-21T00:50:45.254Z,24.94
2018-08-21T00:51:45.304Z,25.32
2018-08-21T00:52:45.291Z,25.42
2018-08-21T00:53:45.281Z,25.32
2018-08-21T00:54:45.265Z,25.32
2018-08-21T00:55:45.256Z,25.52
2018-08-21T00:56:45.246Z,25.23
2018-08-21T00:57:45.239Z,24.94
2018-08-21T00:58:44.957Z,24.18
2018-08-21T00:59:44.945Z,23.12
2018-08-21T01:00:45.200Z,22.16
2018-08-21T01:01:45.192Z,22.35
2018-08-21T01:02:44.907Z,22.25
2018-08-21T01:03:44.895Z,22.35
2018-08-21T01:04:45.152Z,22.35
2018-08-21T01:05:44.874Z,22.64
2018-08-21T01:06:44.860Z,23.02
2018-08-21T01:07:45.110Z,23.12
2018-08-21T01:08:44.840Z,23.5
2018-08-21T01:09:45.092Z,23.41
2018-08-21T01:10:44.816Z,23.12
2018-08-21T01:11:44.799Z,23.31
2018-08-21T01:12:44.791Z,23.39
2018-08-21T01:13:44.776Z,23.11
2018-08-21T01:14:45.034Z,22.82
2018-08-21T01:15:44.758Z,22.15
2018-08-21T01:16:44.742Z,22.34
2018-08-21T01:17:44.999Z,22.44
2018-08-21T01:18:44.979Z,22.15
2018-08-21T01:19:44.710Z,21.95
2018-08-21T01:20:44.693Z,21.57
2018-08-21T01:21:44.955Z,21.86
2018-08-21T01:22:44.669Z,21.67
2018-08-21T01:23:44.657Z,21.77
2018-08-21T01:24:44.912Z,21.38
2018-08-21T01:25:44.896Z,21.09
2018-08-21T01:26:44.622Z,21.57
2018-08-21T01:27:44.619Z,21
2018-08-21T01:28:44.598Z,20.71
2018-08-21T01:29:44.848Z,20.32
2018-08-21T01:30:44.841Z,20.61
2018-08-21T01:31:44.568Z,20.32
2018-08-21T01:32:44.814Z,20.61
2018-08-21T01:33:44.538Z,20.04
2018-08-21T01:34:44.525Z,20.23
2018-08-21T01:35:44.520Z,20.04
2018-08-21T01:36:44.502Z,20.23
2018-08-21T01:37:44.762Z,20.42
2018-08-21T01:38:44.750Z,20.23
2018-08-21T01:39:44.467Z,20.14
2018-08-21T01:40:44.717Z,20.23
2018-08-21T01:41:44.450Z,19.85
2018-08-21T01:42:44.742Z,19.84
2018-08-21T01:43:44.684Z,19.85
2018-08-21T01:44:44.676Z,19.94
2018-08-21T01:45:44.654Z,19.37
2018-08-21T01:46:44.648Z,19.36
2018-08-21T01:47:44.631Z,18.89
2018-08-21T01:48:44.624Z,18.51
2018-08-21T01:49:44.345Z,18.51
2018-08-21T01:50:44.595Z,18.78
2018-08-21T01:51:44.344Z,18.41
2018-08-21T01:52:44.573Z,17.92
2018-08-21T01:53:44.566Z,18.11
2018-08-21T01:54:44.550Z,17.63
2018-08-21T01:55:44.540Z,17.73
2018-08-21T01:56:44.530Z,17.73
2018-08-21T01:57:44.518Z,17.35
2018-08-21T01:58:44.235Z,17.25
2018-08-21T01:59:44.498Z,17.63
2018-08-21T02:00:44.476Z,17.25
2018-08-21T02:01:44.466Z,17.06
2018-08-21T02:02:44.189Z,16.97
2018-08-21T02:03:44.443Z,16.39
2018-08-21T02:04:44.430Z,16.48
2018-08-21T02:05:44.151Z,16.48
2018-08-21T02:06:44.409Z,16.58
2018-08-21T02:07:44.388Z,16.67
2018-08-21T02:08:44.374Z,16
2018-08-21T02:09:44.102Z,15.52
2018-08-21T02:10:44.355Z,15.33
2018-08-21T02:11:44.079Z,15.43
2018-08-21T02:12:44.326Z,15.23
2018-08-21T02:13:44.051Z,15.23
2018-08-21T02:14:44.304Z,15.33
2018-08-21T02:15:44.292Z,15.43
2018-08-21T02:16:44.016Z,15.23
2018-08-21T02:17:44.270Z,14.95
2018-08-21T02:18:43.990Z,15.05
2018-08-21T02:19:44.245Z,15.43
2018-08-21T02:20:44.229Z,14.66
2018-08-21T02:21:44.219Z,14.76
2018-08-21T02:22:44.205Z,14.66
2018-08-21T02:23:43.928Z,14.76
2018-08-21T02:24:43.917Z,15.14
2018-08-21T02:25:44.169Z,15.52
2018-08-21T02:26:44.165Z,15.33
2018-08-21T02:27:44.144Z,15.52
2018-08-21T02:28:44.137Z,15.72
2018-08-21T02:29:44.123Z,15.52
2018-08-21T02:30:44.107Z,15.52
2018-08-21T02:31:43.860Z,15.52
2018-08-21T02:32:44.152Z,15.52
2018-08-21T02:33:43.808Z,15.52
2018-08-21T02:34:43.796Z,15.52
2018-08-21T02:35:44.054Z,15.52
2018-08-21T02:36:43.774Z,16
2018-08-21T02:37:43.766Z,15.81
2018-08-21T02:38:44.017Z,15.72
2018-08-21T02:39:43.999Z,15.62
2018-08-21T02:40:43.722Z,15.23
2018-08-21T02:41:43.981Z,15.23
2018-08-21T02:42:43.702Z,14.76
2018-08-21T02:43:43.951Z,14.47
2018-08-21T02:44:43.675Z,13.99
2018-08-21T02:45:43.924Z,13.89
2018-08-21T02:46:43.915Z,13.32
2018-08-21T02:47:43.904Z,13.51
2018-08-21T02:48:43.889Z,13.13
2018-08-21T02:49:43.612Z,13.13
2018-08-21T02:50:44.114Z,12.65
2018-08-21T02:51:43.855Z,12.84
2018-08-21T02:52:43.845Z,12.84
2018-08-21T02:53:43.829Z,12.55
2018-08-21T02:54:43.551Z,12.84
2018-08-21T02:55:43.807Z,12.36
2018-08-21T02:56:43.809Z,12.36
2018-08-21T02:57:43.780Z,12.07
2018-08-21T02:58:43.789Z,12.17
2018-08-21T02:59:43.489Z,11.69
2018-08-21T03:00:43.740Z,12.07
2018-08-21T03:01:43.734Z,11.6
2018-08-21T03:02:43.452Z,11.6
2018-08-21T03:03:43.438Z,11.6
2018-08-21T03:04:43.427Z,11.51
2018-08-21T03:05:43.676Z,11.69
2018-08-21T03:06:43.403Z,11.51
2018-08-21T03:07:43.387Z,11.31
2018-08-21T03:08:43.644Z,11.51
2018-08-21T03:09:43.364Z,11.6
2018-08-21T03:10:43.359Z,11.41
2018-08-21T03:11:43.615Z,11.41
2018-08-21T03:12:43.601Z,11.69
2018-08-21T03:13:43.324Z,11.41
2018-08-21T03:14:43.565Z,11.6
2018-08-21T03:15:43.554Z,11.6
2018-08-21T03:16:43.543Z,11.51
2018-08-21T03:17:43.535Z,11.89
2018-08-21T03:18:43.527Z,11.69
2018-08-21T03:19:43.511Z,12.08
2018-08-21T03:20:43.498Z,12.18
2018-08-21T03:21:43.755Z,12.37
2018-08-21T03:22:43.215Z,12.56
2018-08-21T03:23:43.462Z,12.75
2018-08-21T03:24:43.453Z,12.94
2018-08-21T03:25:43.451Z,12.94
2018-08-21T03:26:43.167Z,12.94
2018-08-21T03:27:43.148Z,12.94
2018-08-21T03:28:43.137Z,13.32
2018-08-21T03:29:43.122Z,13.04
2018-08-21T03:30:43.113Z,13.23
2018-08-21T03:31:43.372Z,13.04
2018-08-21T03:32:43.353Z,13.32
2018-08-21T03:33:43.341Z,13.52
2018-08-21T03:34:43.330Z,13.71
2018-08-21T03:35:43.318Z,13.32
2018-08-21T03:36:43.308Z,13.42
2018-08-21T03:37:43.289Z,13.52
2018-08-21T03:38:43.017Z,13.81
2018-08-21T03:39:43.273Z,13.52
2018-08-21T03:40:43.255Z,13.71
2018-08-21T03:41:43.246Z,13.52
2018-08-21T03:42:42.969Z,13.9
2018-08-21T03:43:43.222Z,14
2018-08-21T03:44:43.204Z,14.09
2018-08-21T03:45:43.200Z,14.19
2018-08-21T03:46:43.185Z,14.09
2018-08-21T03:47:43.175Z,14
2018-08-21T03:48:43.191Z,14.09
2018-08-21T03:49:43.146Z,14.19
2018-08-21T03:50:43.140Z,14.09
2018-08-21T03:51:43.134Z,14
2018-08-21T03:52:42.846Z,13.9
2018-08-21T03:53:43.107Z,14.19
2018-08-21T03:54:43.084Z,13.9
2018-08-21T03:55:42.811Z,13.81
2018-08-21T03:56:43.063Z,13.81
2018-08-21T03:57:43.053Z,13.52
2018-08-21T03:58:43.082Z,13.32
2018-08-21T03:59:43.030Z,13.42
2018-08-21T04:00:43.023Z,13.42
2018-08-21T04:01:43.004Z,13.42
2018-08-21T04:02:42.725Z,13.81
2018-08-21T04:03:42.977Z,13.99
2018-08-21T04:04:42.701Z,13.81
2018-08-21T04:05:42.961Z,13.71
2018-08-21T04:06:42.674Z,13.32
2018-08-21T04:07:42.926Z,13.81
2018-08-21T04:08:42.979Z,13.9
2018-08-21T04:09:42.643Z,14.18
2018-08-21T04:10:42.651Z,14.28
2018-08-21T04:11:42.616Z,14.76
2018-08-21T04:12:42.606Z,14.56
2018-08-21T04:13:42.907Z,14.37
2018-08-21T04:14:42.852Z,14.66
2018-08-21T04:15:42.835Z,14.18
2018-08-21T04:16:42.560Z,14.18
2018-08-21T04:17:42.547Z,13.89
2018-08-21T04:18:42.533Z,14.18
2018-08-21T04:19:42.791Z,13.89
2018-08-21T04:20:42.509Z,13.7
2018-08-21T04:21:42.757Z,12.46
2018-08-21T04:22:42.788Z,12.46
2018-08-21T04:23:42.470Z,11.6
2018-08-21T04:24:42.959Z,11.02
2018-08-21T04:25:42.445Z,11.21
2018-08-21T04:26:42.700Z,10.64
2018-08-21T04:27:42.419Z,10.64
2018-08-21T04:28:42.415Z,10.83
2018-08-21T04:29:42.669Z,10.54
2018-08-21T04:30:42.645Z,10.64
2018-08-21T04:31:42.644Z,10.54
2018-08-21T04:32:42.864Z,11.11
2018-08-21T04:33:42.618Z,11.02
2018-08-21T04:34:42.601Z,10.54
2018-08-21T04:35:42.590Z,10.54
2018-08-21T04:36:42.592Z,10.64
2018-08-21T04:37:42.302Z,10.54
2018-08-21T04:38:42.551Z,10.25
2018-08-21T04:39:42.536Z,9.58
2018-08-21T04:40:42.525Z,9.3
2018-08-21T04:41:42.530Z,9.01
2018-08-21T04:42:42.243Z,8.72
2018-08-21T04:43:42.235Z,9.1
2018-08-21T04:44:42.478Z,9.58
2018-08-21T04:45:42.464Z,9.48
2018-08-21T04:46:42.188Z,9.87
2018-08-21T04:47:42.440Z,9.87
2018-08-21T04:48:42.160Z,10.16
2018-08-21T04:49:42.426Z,10.25
2018-08-21T04:50:42.805Z,10.06
2018-08-21T04:51:42.390Z,9.48
2018-08-21T04:52:42.379Z,9.48
2018-08-21T04:53:42.372Z,9.39
2018-08-21T04:54:42.356Z,9.01
2018-08-21T04:55:42.077Z,8.82
2018-08-21T04:56:42.068Z,9.1
2018-08-21T04:57:42.320Z,9.01
2018-08-21T04:58:42.174Z,8.62
2018-08-21T04:59:42.294Z,8.62
2018-08-21T05:00:42.281Z,9.01
2018-08-21T05:01:42.003Z,9.01
2018-08-21T05:02:42.291Z,8.72
2018-08-21T05:03:42.242Z,8.62
2018-08-21T05:04:41.967Z,8.72
2018-08-21T05:05:42.343Z,8.72
2018-08-21T05:06:41.943Z,8.62
2018-08-21T05:07:41.936Z,8.92
2018-08-21T05:08:42.184Z,8.72
2018-08-21T05:09:41.905Z,9.39
2018-08-21T05:10:41.899Z,8.82
2018-08-21T05:11:42.147Z,8.72
2018-08-21T05:12:42.207Z,8.82
2018-08-21T05:13:42.130Z,8.92
2018-08-21T05:14:41.852Z,8.92
2018-08-21T05:15:42.099Z,8.53
2018-08-21T05:16:42.086Z,8.34
2018-08-21T05:17:41.813Z,8.44
2018-08-21T05:18:42.078Z,8.53
2018-08-21T05:19:42.052Z,7.86
2018-08-21T05:20:41.777Z,8.34
2018-08-21T05:21:41.765Z,7.96
2018-08-21T05:22:41.748Z,7.57
2018-08-21T05:23:42.005Z,7.48
2018-08-21T05:24:42.007Z,7.48
2018-08-21T05:25:41.984Z,7.67
2018-08-21T05:26:41.977Z,7.67
2018-08-21T05:27:41.958Z,7.48
2018-08-21T05:28:42.127Z,7.77
2018-08-21T05:29:41.935Z,7.67
2018-08-21T05:30:41.929Z,7.77
2018-08-21T05:31:41.646Z,7.96
2018-08-21T05:32:41.900Z,7.96
2018-08-21T05:33:41.889Z,7.77
2018-08-21T05:34:41.610Z,7.68
2018-08-21T05:35:41.860Z,7.68
2018-08-21T05:36:41.852Z,7.58
2018-08-21T05:37:41.583Z,7.87
2018-08-21T05:38:41.564Z,7.77
2018-08-21T05:39:41.549Z,8.44
2018-08-21T05:40:41.534Z,8.44
2018-08-21T05:41:41.812Z,8.73
2018-08-21T05:42:41.518Z,9.21
2018-08-21T05:43:41.876Z,9.02
2018-08-21T05:44:41.491Z,9.31
2018-08-21T05:45:41.746Z,9.31
2018-08-21T05:46:41.739Z,9.31
2018-08-21T05:47:41.455Z,9.6
2018-08-21T05:48:41.449Z,9.5
2018-08-21T05:49:41.432Z,9.41
2018-08-21T05:50:41.692Z,9.5
2018-08-21T05:51:41.417Z,9.99
2018-08-21T05:52:41.402Z,9.89
2018-08-21T05:53:41.651Z,10.17
2018-08-21T05:54:41.397Z,9.99
2018-08-21T05:55:41.398Z,10.08
2018-08-21T05:56:41.617Z,10.38
2018-08-21T05:57:41.349Z,10.85
2018-08-21T05:58:41.333Z,11.23
2018-08-21T05:59:41.324Z,11.43
2018-08-21T06:00:41.579Z,11.52
2018-08-21T06:01:41.301Z,11.82
2018-08-21T06:02:41.550Z,11.72
2018-08-21T06:03:41.276Z,12.59
2018-08-21T06:04:41.532Z,12.87
2018-08-21T06:05:41.520Z,12.87
2018-08-21T06:06:41.244Z,12.97
2018-08-21T06:07:41.230Z,13.54
2018-08-21T06:08:41.228Z,13.64
2018-08-21T06:09:41.474Z,13.26
2018-08-21T06:10:41.464Z,13.45
2018-08-21T06:11:41.239Z,13.74
2018-08-21T06:12:41.465Z,13.93
2018-08-21T06:13:41.437Z,14.12
2018-08-21T06:14:41.160Z,14.7
2018-08-21T06:15:41.142Z,14.6
2018-08-21T06:16:41.139Z,15.08
2018-08-21T06:17:41.122Z,14.98
2018-08-21T06:18:41.377Z,15.18
2018-08-21T06:19:41.369Z,15.18
2018-08-21T06:20:41.356Z,15.08
2018-08-21T06:21:41.348Z,14.41
2018-08-21T06:22:41.067Z,13.93
2018-08-21T06:23:41.325Z,13.54
2018-08-21T06:24:41.309Z,13.64
2018-08-21T06:25:41.039Z,13.54
2018-08-21T06:26:41.029Z,13.54
2018-08-21T06:27:41.292Z,14.6
2018-08-21T06:28:41.269Z,14.7
2018-08-21T06:29:41.264Z,14.89
2018-08-21T06:30:41.247Z,14.98
2018-08-21T06:31:41.262Z,16.14
2018-08-21T06:32:41.222Z,16.14
2018-08-21T06:33:41.224Z,16.24
2018-08-21T06:34:40.941Z,16.04
2018-08-21T06:35:40.926Z,16.53
2018-08-21T06:36:40.915Z,16.04
2018-08-21T06:37:41.193Z,15.47
2018-08-21T06:38:41.163Z,15.08
2018-08-21T06:39:40.910Z,15.19
2018-08-21T06:40:41.138Z,15.28
2018-08-21T06:41:40.885Z,15.38
2018-08-21T06:42:40.852Z,15
2018-08-21T06:43:40.862Z,15.09
2018-08-21T06:44:40.861Z,15.28
2018-08-21T06:45:40.829Z,15.28
2018-08-21T06:46:41.328Z,15.47
2018-08-21T06:47:41.059Z,16.34
2018-08-21T06:48:41.053Z,16.24
2018-08-21T06:49:40.776Z,17.01
2018-08-21T06:50:41.029Z,16.82
2018-08-21T06:51:41.018Z,16.44
2018-08-21T06:52:41.010Z,15.95
2018-08-21T06:53:41.009Z,16.44
2018-08-21T06:54:40.724Z,16.05
2018-08-21T06:55:40.980Z,16.44
2018-08-21T06:56:40.703Z,15.96
2018-08-21T06:57:40.692Z,16.15
2018-08-21T06:58:40.953Z,15.57
2018-08-21T06:59:40.934Z,15.19
2018-08-21T07:00:40.663Z,15.58
2018-08-21T07:01:40.916Z,16.15
2018-08-21T07:02:40.638Z,16.44
2018-08-21T07:03:40.889Z,16.35
2018-08-21T07:04:40.615Z,16.54
2018-08-21T07:05:40.893Z,16.64
2018-08-21T07:06:40.600Z,16.83
2018-08-21T07:07:40.585Z,17.41
2018-08-21T07:08:40.836Z,17.79
2018-08-21T07:09:40.828Z,18.18
2018-08-21T07:10:40.823Z,17.88
2018-08-21T07:11:40.813Z,18.46
2018-08-21T07:12:40.538Z,18.08
2018-08-21T07:13:40.527Z,18.27
2018-08-21T07:14:40.781Z,18.95
2018-08-21T07:15:40.779Z,18.95
2018-08-21T07:16:40.764Z,18.75
2018-08-21T07:17:40.750Z,17.98
2018-08-21T07:18:40.738Z,17.69
2018-08-21T07:19:40.738Z,17.6
2018-08-21T07:20:40.721Z,17.5
2018-08-21T07:21:40.709Z,17.79
2018-08-21T07:22:40.438Z,17.21
2018-08-21T07:23:40.688Z,17.99
2018-08-21T07:24:40.685Z,17.9
2018-08-21T07:25:40.686Z,17.9
2018-08-21T07:26:40.658Z,17.99
2018-08-21T07:27:40.645Z,17.51
2018-08-21T07:28:40.638Z,17.8
2018-08-21T07:29:40.365Z,18.18
2018-08-21T07:30:40.617Z,18.18
2018-08-21T07:31:40.608Z,17.7
2018-08-21T07:32:40.390Z,17.7
2018-08-21T07:33:40.590Z,17.51
2018-08-21T07:34:40.581Z,17.7
2018-08-21T07:35:40.701Z,18.08
2018-08-21T07:36:40.559Z,18.08
2018-08-21T07:37:40.546Z,17.99
2018-08-21T07:38:40.543Z,18.57
2018-08-21T07:39:40.525Z,18.95
2018-08-21T07:40:40.256Z,18.95
2018-08-21T07:41:40.243Z,19.05
2018-08-21T07:42:40.237Z,19.92
2018-08-21T07:43:40.228Z,20.59
2018-08-21T07:44:40.481Z,20.2
2018-08-21T07:45:40.202Z,21.26
2018-08-21T07:46:40.202Z,20.78
2018-08-21T07:47:40.184Z,20.79
2018-08-21T07:48:40.233Z,21.56
2018-08-21T07:49:40.430Z,22.24
2018-08-21T07:50:40.428Z,22.14
2018-08-21T07:51:40.410Z,22.33
2018-08-21T07:52:40.401Z,23.3
2018-08-21T07:53:40.392Z,23.39
2018-08-21T07:54:40.382Z,24.45
2018-08-21T07:55:40.372Z,25.42
2018-08-21T07:56:40.094Z,24.93
2018-08-21T07:57:40.355Z,24.84
2018-08-21T07:58:40.345Z,24.55
2018-08-21T07:59:40.067Z,23.68
2018-08-21T08:00:40.059Z,23.97
2018-08-21T08:01:40.321Z,24.84
2018-08-21T08:02:40.041Z,25.42
2018-08-21T08:03:40.294Z,25.12
2018-08-21T08:04:40.313Z,25.99
2018-08-21T08:05:40.276Z,25.7
2018-08-21T08:06:40.004Z,25.42
2018-08-21T08:07:40.264Z,25.81
2018-08-21T08:08:39.985Z,26.1
2018-08-21T08:09:40.258Z,26.48
2018-08-21T08:10:39.981Z,27.35
2018-08-21T08:11:39.954Z,28.51
2018-08-21T08:12:39.951Z,28.89
2018-08-21T08:13:40.300Z,30.53
2018-08-21T08:14:40.197Z,31.78
2018-08-21T08:15:39.927Z,33.13
2018-08-21T08:16:39.911Z,34
2018-08-21T08:17:40.164Z,35.64
2018-08-21T08:18:40.157Z,35.25
2018-08-21T08:19:40.159Z,35.06
2018-08-21T08:20:39.871Z,35.36
2018-08-21T08:21:40.130Z,36.04
2018-08-21T08:22:40.150Z,34.3
2018-08-21T08:23:39.847Z,35.85
2018-08-21T08:24:40.104Z,36.71
2018-08-21T08:25:40.096Z,37.77
2018-08-21T08:26:40.094Z,36.33
2018-08-21T08:27:39.810Z,38.06
2018-08-21T08:28:39.803Z,39.79
2018-08-21T08:29:40.055Z,38.26
2018-08-21T08:30:40.047Z,39.12
2018-08-21T08:31:39.776Z,38.16
2018-08-21T08:32:40.036Z,39.31
2018-08-21T08:33:40.021Z,39.61
2018-08-21T08:34:39.755Z,40.19
2018-08-21T08:35:40.012Z,40.28
2018-08-21T08:36:39.732Z,40.37
2018-08-21T08:37:39.984Z,40.57
2018-08-21T08:38:39.980Z,40.76
2018-08-21T08:39:39.973Z,40.69
2018-08-21T08:40:39.694Z,43.48
2018-08-21T08:41:40.269Z,43.58
2018-08-21T08:42:39.947Z,45.03
2018-08-21T08:43:39.664Z,45.03
2018-08-21T08:44:39.925Z,48.69
2018-08-21T08:45:39.917Z,48.21
2018-08-21T08:46:39.643Z,46.69
2018-08-21T08:47:39.678Z,45.12
2018-08-21T08:48:39.627Z,49.77
2018-08-21T08:49:39.618Z,51.32
2018-08-21T08:50:39.877Z,50.81
2018-08-21T08:51:39.801Z,50.45
2018-08-21T08:52:39.857Z,49.48
2018-08-21T08:53:39.587Z,52.95
2018-08-21T08:54:39.844Z,56.33
2018-08-21T08:55:39.565Z,53.15
2018-08-21T08:56:39.560Z,52.28
2018-08-21T08:57:39.822Z,53.25
2018-08-21T08:58:39.908Z,53.53
2018-08-21T08:59:39.795Z,55.68
2018-08-21T09:00:39.790Z,53.75
2018-08-21T09:01:39.783Z,54.43
2018-08-21T09:02:39.779Z,55.68
2018-08-21T09:03:39.768Z,56.65
2018-08-21T09:04:39.763Z,55.4
2018-08-21T09:05:39.485Z,61.86
2018-08-21T09:06:39.747Z,60.41
2018-08-21T09:07:39.468Z,60.51
2018-08-21T09:08:39.459Z,60.31
2018-08-21T09:09:39.453Z,59.74
2018-08-21T09:10:39.717Z,60.93
2018-08-21T09:11:39.704Z,61.41
2018-08-21T09:12:39.696Z,65.66
2018-08-21T09:13:39.421Z,65.85
2018-08-21T09:14:39.679Z,66.82
2018-08-21T09:15:39.673Z,64.01
2018-08-21T09:16:39.662Z,63.63
2018-08-21T09:17:39.564Z,70.48
2018-08-21T09:18:39.660Z,71.06
2018-08-21T09:19:39.643Z,70.48
2018-08-21T09:20:39.642Z,72.42
2018-08-21T09:21:39.631Z,69.26
2018-08-21T09:22:39.618Z,68.4
2018-08-21T09:23:39.624Z,73.32
2018-08-21T09:24:39.339Z,74
2018-08-21T09:25:39.332Z,78.83
2018-08-21T09:26:39.325Z,79.7
2018-08-21T09:27:39.348Z,78
2018-08-21T09:28:39.311Z,77.51
2018-08-21T09:29:39.762Z,81.48
2018-08-21T09:30:39.302Z,78.87
2018-08-21T09:31:39.560Z,81.67
2018-08-21T09:32:39.294Z,81.67
2018-08-21T09:33:39.279Z,81.87
2018-08-21T09:34:39.275Z,81.04
2018-08-21T09:35:39.533Z,82.87
2018-08-21T09:36:39.526Z,86.45
2018-08-21T09:37:39.519Z,87.51
2018-08-21T09:38:39.522Z,88.57
2018-08-21T09:39:39.506Z,88.19
2018-08-21T09:40:39.234Z,88.71
2018-08-21T09:41:39.492Z,92.58
2018-08-21T09:42:39.228Z,94.13
2018-08-21T09:43:39.241Z,94.33
2018-08-21T09:44:39.234Z,92.68
2018-08-21T09:45:39.474Z,90.94
2018-08-21T09:46:39.466Z,93.94
2018-08-21T09:47:39.454Z,91.91
2018-08-21T09:48:39.192Z,91.72
2018-08-21T09:49:39.441Z,93.75
2018-08-21T09:50:39.441Z,96.94
2018-08-21T09:51:39.185Z,96.46
2018-08-21T09:52:39.424Z,98.1
2018-08-21T09:53:39.154Z,98.68
2018-08-21T09:54:39.411Z,99.36
2018-08-21T09:55:39.405Z,97.62
2018-08-21T09:56:39.400Z,99.99
2018-08-21T09:57:39.392Z,99.46
2018-08-21T09:58:39.128Z,99.99
2018-08-21T09:59:39.381Z,99.99
2018-08-21T10:00:39.373Z,99.84
2018-08-21T10:01:39.105Z,99.99
2018-08-21T10:02:39.371Z,99.99
2018-08-21T10:03:39.358Z,99.99
2018-08-21T10:04:39.350Z,99.99
2018-08-21T10:05:39.079Z,99.99
2018-08-21T10:06:39.138Z,99.99
2018-08-21T10:07:39.080Z,99.99
2018-08-21T10:08:39.064Z,99.99
2018-08-21T10:09:39.321Z,99.99
2018-08-21T10:10:39.317Z,99.99
2018-08-21T10:11:39.043Z,99.99
2018-08-21T10:12:39.036Z,99.99
2018-08-21T10:13:39.079Z,99.99
2018-08-21T10:14:39.026Z,99.99
2018-08-21T10:15:39.286Z,99.99
2018-08-21T10:16:39.278Z,99.99
2018-08-21T10:17:39.007Z,99.99
2018-08-21T10:18:39.266Z,99.99
2018-08-21T10:19:38.998Z,99.99
2018-08-21T10:20:39.257Z,99.99
2018-08-21T10:21:39.295Z,99.99
2018-08-21T10:22:39.244Z,99.99
2018-08-21T10:23:39.020Z,99.99
2018-08-21T10:24:39.235Z,99.99
2018-08-21T10:25:39.222Z,99.99
2018-08-21T10:26:38.954Z,99.99
2018-08-21T10:27:38.945Z,99.99
2018-08-21T10:28:38.940Z,99.99
2018-08-21T10:29:39.207Z,99.99
2018-08-21T10:30:38.931Z,99.99
2018-08-21T10:31:39.186Z,99.99
2018-08-21T10:32:39.181Z,99.99
2018-08-21T10:33:39.172Z,99.99
2018-08-21T10:34:38.907Z,99.99
2018-08-21T10:35:39.166Z,99.99
2018-08-21T10:36:38.895Z,99.99
2018-08-21T10:37:38.897Z,99.99
2018-08-21T10:38:38.882Z,99.99
2018-08-21T10:39:39.143Z,99.99
2018-08-21T10:40:38.870Z,99.99
2018-08-21T10:41:38.888Z,99.99
2018-08-21T10:42:38.862Z,99.99
2018-08-21T10:43:39.124Z,99.99
2018-08-21T10:44:39.118Z,99.99
2018-08-21T10:45:39.121Z,99.99
2018-08-21T10:46:39.121Z,99.99
2018-08-21T10:47:39.102Z,99.99
2018-08-21T10:48:39.103Z,99.99
2018-08-21T10:49:39.097Z,99.99
2018-08-21T10:50:39.098Z,99.99
2018-08-21T10:51:39.381Z,99.99
2018-08-21T10:52:39.088Z,99.99
2018-08-21T10:53:38.821Z,98.54
2018-08-21T10:54:39.082Z,99.99
2018-08-21T10:55:39.085Z,91.34
2018-08-21T10:56:39.084Z,86.56
2018-08-21T10:57:38.829Z,83.87
2018-08-21T10:58:38.810Z,82.6
2018-08-21T10:59:38.821Z,80.46
2018-08-21T11:00:38.807Z,81.83
2018-08-21T11:01:39.066Z,81.1
2018-08-21T11:02:38.802Z,81.2
2018-08-21T11:03:38.826Z,80.36
2018-08-21T11:04:39.067Z,82.9
2018-08-21T11:05:39.067Z,81.24
2018-08-21T11:06:39.061Z,80.95
2018-08-21T11:07:38.827Z,77.83
2018-08-21T11:08:39.067Z,79.1
2018-08-21T11:09:39.111Z,77.64
2018-08-21T11:10:39.073Z,76.08
2018-08-21T11:11:38.837Z,76.18
2018-08-21T11:12:39.211Z,77.44
2018-08-21T11:13:39.063Z,75.82
2018-08-21T11:14:39.074Z,73
2018-08-21T11:15:39.068Z,74.07
2018-08-21T11:16:38.804Z,76.02
2018-08-21T11:17:38.825Z,72.12
2018-08-21T11:18:38.808Z,72.8
2018-08-21T11:19:38.823Z,71.86
2018-08-21T11:20:39.076Z,70.79
2018-08-21T11:21:39.237Z,71.54
2018-08-21T11:22:39.081Z,71.37
2018-08-21T11:23:39.080Z,70.7
2018-08-21T11:24:39.087Z,72.45
2018-08-21T11:25:38.836Z,72.16
2018-08-21T11:26:39.091Z,72.35
2018-08-21T11:27:38.831Z,69.62
2018-08-21T11:28:39.109Z,70.7
2018-08-21T11:29:38.837Z,72.25
2018-08-21T11:30:39.104Z,72.84
2018-08-21T11:31:39.111Z,72.19
2018-08-21T11:32:39.108Z,71.22
2018-08-21T11:33:39.455Z,71.41
2018-08-21T11:34:39.107Z,70.83
2018-08-21T11:35:39.105Z,69.46
2018-08-21T11:36:38.846Z,68.29
2018-08-21T11:37:38.851Z,70.53
2018-08-21T11:38:39.112Z,69.26
2018-08-21T11:39:39.119Z,69.46
2018-08-21T11:40:38.859Z,69.59
2018-08-21T11:41:38.857Z,68.52
2018-08-21T11:42:39.118Z,66.86
2018-08-21T11:43:38.863Z,66.96
2018-08-21T11:44:39.250Z,67.15
2018-08-21T11:45:38.864Z,66.34
2018-08-21T11:46:38.861Z,67.12
2018-08-21T11:47:39.132Z,66.44
2018-08-21T11:48:38.895Z,68.1
2018-08-21T11:49:38.878Z,69.26
2018-08-21T11:50:38.883Z,67.12
2018-08-21T11:51:38.870Z,65.26
2018-08-21T11:52:39.135Z,67.32
2018-08-21T11:53:38.879Z,64.87
2018-08-21T11:54:39.139Z,67.32
2018-08-21T11:55:39.148Z,66.83
2018-08-21T11:56:38.882Z,68.19
2018-08-21T11:57:39.143Z,68.68
2018-08-21T11:58:38.880Z,68.68
2018-08-21T11:59:39.143Z,66.17
2018-08-21T12:00:38.882Z,66.96
2018-08-21T12:01:38.880Z,67.58
2018-08-21T12:02:39.150Z,67.12
2018-08-21T12:03:39.148Z,65.88
2018-08-21T12:04:38.882Z,63.83
2018-08-21T12:05:39.153Z,63.05
2018-08-21T12:06:39.151Z,63.34
2018-08-21T12:07:39.158Z,61.71
2018-08-21T12:08:39.159Z,61.44
2018-08-21T12:09:38.890Z,61.71
2018-08-21T12:10:38.893Z,63.37
2018-08-21T12:11:38.899Z,62
2018-08-21T12:12:38.904Z,64.15
2018-08-21T12:13:38.902Z,60.73
2018-08-21T12:14:39.245Z,62.03
2018-08-21T12:15:39.200Z,59.61
2018-08-21T12:16:39.177Z,59.94
2018-08-21T12:17:38.913Z,59.48
2018-08-21T12:18:38.921Z,60.75
2018-08-21T12:19:39.189Z,58.5
2018-08-21T12:20:39.183Z,58.69
2018-08-21T12:21:38.929Z,56.37
2018-08-21T12:22:38.928Z,58.23
2018-08-21T12:23:39.204Z,57.87
2018-08-21T12:24:39.204Z,55.83
2018-08-21T12:25:38.939Z,54.98
2018-08-21T12:26:38.943Z,55.08
2018-08-21T12:27:39.212Z,55.93
2018-08-21T12:28:39.222Z,56.32
2018-08-21T12:29:38.960Z,56.98
2018-08-21T12:30:39.231Z,56.13
2018-08-21T12:31:39.251Z,56.4
2018-08-21T12:32:39.243Z,54.66
2018-08-21T12:33:38.984Z,54.6
2018-08-21T12:34:38.983Z,54.75
2018-08-21T12:35:39.260Z,54.85
2018-08-21T12:36:38.993Z,53.97
2018-08-21T12:37:39.004Z,52.92
2018-08-21T12:38:39.270Z,55.76
2018-08-21T12:39:39.284Z,53.7
2018-08-21T12:40:39.283Z,55
2018-08-21T12:41:39.290Z,54.12
2018-08-21T12:42:39.292Z,53.73
2018-08-21T12:43:39.032Z,54.12
2018-08-21T12:44:39.299Z,53.92
2018-08-21T12:45:39.307Z,53.56
2018-08-21T12:46:39.314Z,54.81
2018-08-21T12:47:39.061Z,55.03
2018-08-21T12:48:39.320Z,53.85
2018-08-21T12:49:39.326Z,54.93
2018-08-21T12:50:39.339Z,52.89
2018-08-21T12:51:39.541Z,52.87
2018-08-21T12:52:39.351Z,51.96
2018-08-21T12:53:39.097Z,51.57
2018-08-21T12:54:39.361Z,51.84
2018-08-21T12:55:39.363Z,53.02
2018-08-21T12:56:39.368Z,53.6
2018-08-21T12:57:39.379Z,54
2018-08-21T12:58:39.122Z,52.72